createdAt,value
2022-09-02T00:01:29.518Z,0.80
2022-09-02T00:04:12.640Z,0.70
2022-09-02T00:06:40.964Z,0.82
2022-09-02T00:09:10.243Z,0.68
2022-09-02T00:11:39.407Z,0.70
2022-09-02T00:14:11.078Z,0.57
2022-09-02T00:16:39.840Z,0.70
2022-09-02T00:19:07.310Z,0.68
2022-09-02T00:21:35.623Z,0.70
2022-09-02T00:24:05.567Z,0.68
2022-09-02T00:26:32.939Z,0.60
2022-09-02T00:29:00.251Z,0.70
2022-09-02T00:31:29.118Z,0.70
2022-09-02T00:33:56.600Z,0.63
2022-09-02T00:36:23.981Z,0.60
2022-09-02T00:38:52.211Z,0.65
2022-09-02T00:41:23.815Z,0.60
2022-09-02T00:44:07.592Z,0.60
2022-09-02T00:46:36.009Z,0.70
2022-09-02T00:49:24.882Z,0.70
2022-09-02T00:52:12.971Z,0.60
2022-09-02T00:54:46.367Z,0.70
2022-09-02T00:57:19.469Z,0.65
2022-09-02T01:00:17.976Z,0.73
2022-09-02T01:02:49.295Z,0.68
2022-09-02T01:05:18.759Z,0.60
2022-09-02T01:07:46.765Z,0.75
2022-09-02T01:10:30.524Z,0.68
2022-09-02T01:12:59.557Z,0.98
2022-09-02T01:15:27.445Z,0.70
2022-09-02T01:17:54.999Z,0.70
2022-09-02T01:20:25.681Z,0.68
2022-09-02T01:22:54.793Z,0.60
2022-09-02T01:25:25.626Z,0.70
2022-09-02T01:27:53.622Z,0.60
2022-09-02T01:30:24.925Z,0.80
2022-09-02T01:32:53.410Z,0.65
2022-09-02T01:35:20.638Z,0.70
2022-09-02T01:37:55.589Z,0.60
2022-09-02T01:40:24.925Z,0.60
2022-09-02T01:42:57.093Z,0.70
2022-09-02T01:45:24.583Z,0.68
2022-09-02T01:47:52.222Z,0.60
2022-09-02T01:50:20.047Z,0.70
2022-09-02T01:52:47.394Z,0.75
2022-09-02T01:55:14.825Z,0.70
2022-09-02T01:57:42.104Z,0.60
2022-09-02T02:00:11.950Z,0.50
2022-09-02T02:02:39.625Z,0.60
2022-09-02T02:05:11.734Z,0.60
2022-09-02T02:07:39.060Z,0.60
2022-09-02T02:10:08.016Z,0.60
2022-09-02T02:12:35.268Z,0.60
2022-09-02T02:15:07.853Z,0.70
2022-09-02T02:17:35.515Z,0.60
2022-09-02T02:20:03.092Z,0.68
2022-09-02T02:22:31.357Z,0.60
2022-09-02T02:24:58.687Z,0.60
2022-09-02T02:27:25.982Z,0.73
2022-09-02T02:29:53.821Z,0.60
2022-09-02T02:32:22.081Z,0.60
2022-09-02T02:34:49.484Z,0.65
2022-09-02T02:37:16.801Z,0.60
2022-09-02T02:39:44.534Z,0.70
2022-09-02T02:42:14.775Z,0.60
2022-09-02T02:44:42.061Z,0.80
2022-09-02T02:47:09.518Z,0.70
2022-09-02T02:49:41.883Z,0.52
2022-09-02T02:52:11.419Z,0.45
2022-09-02T02:54:39.069Z,0.50
2022-09-02T02:57:07.741Z,0.60
2022-09-02T02:59:36.847Z,0.60
2022-09-02T03:02:06.165Z,0.60
2022-09-02T03:04:34.065Z,0.70
2022-09-02T03:07:02.343Z,0.55
2022-09-02T03:09:29.706Z,0.80
2022-09-02T03:11:56.954Z,0.43
2022-09-02T03:14:24.711Z,0.50
2022-09-02T03:16:52.396Z,0.68
2022-09-02T03:19:19.711Z,0.43
2022-09-02T03:21:47.104Z,0.73
2022-09-02T03:24:14.347Z,0.65
2022-09-02T03:26:43.210Z,0.70
2022-09-02T03:29:10.589Z,0.70
2022-09-02T03:31:38.055Z,0.60
2022-09-02T03:34:06.959Z,0.80
2022-09-02T03:36:38.899Z,0.60
2022-09-02T03:39:09.747Z,0.52
2022-09-02T03:41:38.084Z,0.70
2022-09-02T03:44:05.890Z,0.50
2022-09-02T03:46:33.763Z,0.50
2022-09-02T03:49:01.338Z,0.50
2022-09-02T03:51:28.774Z,0.70
2022-09-02T03:53:56.047Z,0.60
2022-09-02T03:56:25.265Z,0.60
2022-09-02T03:58:53.373Z,0.60
2022-09-02T04:01:24.238Z,0.50
2022-09-02T04:03:56.491Z,0.52
2022-09-02T04:06:26.302Z,0.65
2022-09-02T04:09:00.202Z,0.60
2022-09-02T04:11:27.466Z,0.80
2022-09-02T04:13:55.202Z,0.52
2022-09-02T04:16:31.407Z,0.57
2022-09-02T04:19:02.016Z,0.52
2022-09-02T04:21:32.218Z,0.68
2022-09-02T04:23:59.590Z,0.50
2022-09-02T04:26:27.861Z,0.60
2022-09-02T04:28:55.472Z,0.60
2022-09-02T04:31:25.835Z,0.60
2022-09-02T04:33:53.989Z,0.60
2022-09-02T04:36:22.517Z,0.70
2022-09-02T04:38:52.838Z,0.60
2022-09-02T04:41:23.356Z,0.70
2022-09-02T04:43:52.327Z,0.80
2022-09-02T04:46:20.063Z,0.65
2022-09-02T04:49:02.002Z,0.70
2022-09-02T04:51:29.434Z,0.57
2022-09-02T04:53:56.868Z,0.70
2022-09-02T04:56:27.277Z,0.70
2022-09-02T04:58:55.554Z,0.60
2022-09-02T05:01:28.672Z,0.63
2022-09-02T05:03:56.160Z,0.80
2022-09-02T05:06:27.294Z,0.60
2022-09-02T05:08:56.351Z,0.70
2022-09-02T05:11:29.426Z,0.60
2022-09-02T05:13:59.290Z,0.65
2022-09-02T05:16:29.710Z,0.60
2022-09-02T05:18:57.506Z,0.57
2022-09-02T05:21:25.121Z,0.60
2022-09-02T05:23:54.511Z,0.70
2022-09-02T05:26:22.667Z,0.60
2022-09-02T05:28:51.074Z,0.60
2022-09-02T05:31:20.333Z,0.65
2022-09-02T05:33:48.296Z,0.80
2022-09-02T05:36:19.625Z,0.90
2022-09-02T05:38:47.831Z,0.57
2022-09-02T05:41:23.398Z,0.65
2022-09-02T05:43:52.540Z,0.90
2022-09-02T05:46:23.387Z,1.15
2022-09-02T05:49:07.513Z,0.63
2022-09-02T05:51:45.708Z,0.70
2022-09-02T05:54:17.715Z,0.70
2022-09-02T05:56:46.733Z,0.90
2022-09-02T05:59:14.663Z,0.60
2022-09-02T06:01:42.711Z,0.85
2022-09-02T06:04:10.292Z,0.88
2022-09-02T06:06:38.765Z,0.85
2022-09-02T06:09:11.521Z,0.57
2022-09-02T06:11:45.365Z,0.80
2022-09-02T06:14:14.215Z,0.63
2022-09-02T06:16:43.031Z,0.80
2022-09-02T06:19:14.348Z,0.85
2022-09-02T06:21:45.049Z,0.80
2022-09-02T06:24:13.457Z,0.90
2022-09-02T06:26:41.615Z,0.90
2022-09-02T06:29:10.556Z,0.80
2022-09-02T06:31:40.383Z,1.10
2022-09-02T06:34:07.741Z,0.80
2022-09-02T06:36:35.019Z,0.80
2022-09-02T06:39:02.272Z,0.80
2022-09-02T06:41:33.379Z,0.73
2022-09-02T06:44:03.516Z,1.00
2022-09-02T06:46:38.397Z,0.90
2022-09-02T06:49:07.375Z,0.80
2022-09-02T06:51:41.735Z,1.02
2022-09-02T06:54:14.187Z,1.45
2022-09-02T06:56:47.184Z,1.08
2022-09-02T06:59:17.443Z,0.95
2022-09-02T07:01:45.255Z,0.82
2022-09-02T07:04:31.443Z,0.90
2022-09-02T07:06:59.112Z,1.20
2022-09-02T07:09:33.900Z,0.90
2022-09-02T07:12:04.973Z,1.08
2022-09-02T07:14:40.705Z,1.13
2022-09-02T07:17:10.257Z,1.23
2022-09-02T07:19:38.255Z,1.23
2022-09-02T07:22:06.951Z,1.50
2022-09-02T07:24:34.640Z,1.20
2022-09-02T07:27:02.155Z,1.33
2022-09-02T07:29:29.772Z,1.23
2022-09-02T07:31:57.023Z,1.40
2022-09-02T07:34:24.966Z,1.40
2022-09-02T07:36:52.633Z,1.20
2022-09-02T07:39:20.504Z,1.27
2022-09-02T07:41:50.565Z,1.33
2022-09-02T07:44:20.599Z,1.10
2022-09-02T07:46:47.903Z,1.08
2022-09-02T07:49:20.867Z,1.10
2022-09-02T07:51:52.463Z,1.10
2022-09-02T07:54:22.332Z,1.15
2022-09-02T07:56:50.014Z,1.30
2022-09-02T07:59:18.117Z,1.42
2022-09-02T08:01:47.526Z,1.33
2022-09-02T08:04:15.132Z,1.60
2022-09-02T08:06:42.665Z,1.42
2022-09-02T08:09:14.055Z,1.60
2022-09-02T08:11:44.356Z,1.58
2022-09-02T08:14:17.958Z,1.65
2022-09-02T08:16:46.749Z,1.60
2022-09-02T08:19:15.186Z,1.75
2022-09-02T08:21:42.526Z,1.30
2022-09-02T08:24:10.272Z,2.05
2022-09-02T08:26:37.622Z,1.60
2022-09-02T08:29:07.274Z,1.50
2022-09-02T08:31:37.043Z,1.88
2022-09-02T08:34:04.408Z,3.03
2022-09-02T08:36:31.709Z,2.97
2022-09-02T08:39:01.290Z,3.00
2022-09-02T08:42:03.343Z,2.60
2022-09-02T08:44:32.592Z,2.30
2022-09-02T08:47:04.893Z,2.75
2022-09-02T08:50:03.415Z,2.80
2022-09-02T08:52:52.171Z,2.90
2022-09-02T08:55:25.453Z,2.63
2022-09-02T08:57:56.523Z,2.72
2022-09-02T09:00:24.163Z,2.67
2022-09-02T09:03:18.360Z,2.75
2022-09-02T09:06:04.742Z,2.97
2022-09-02T09:08:34.778Z,2.78
2022-09-02T09:11:09.891Z,2.40
2022-09-02T09:13:40.823Z,2.88
2022-09-02T09:16:48.664Z,2.67
2022-09-02T09:19:29.564Z,2.97
2022-09-02T09:22:00.958Z,3.30
2022-09-02T09:24:32.648Z,2.85
2022-09-02T09:27:00.169Z,3.25
2022-09-02T09:29:31.978Z,3.30
2022-09-02T09:32:00.995Z,2.97
2022-09-02T09:35:01.635Z,2.97
2022-09-02T09:37:36.536Z,2.50
2022-09-02T09:40:28.382Z,2.60
2022-09-02T09:42:57.487Z,2.38
2022-09-02T09:45:45.917Z,2.55
2022-09-02T09:48:31.463Z,2.10
2022-09-02T09:50:58.669Z,2.00
2022-09-02T09:53:27.052Z,2.30
2022-09-02T09:55:58.991Z,2.22
2022-09-02T09:58:41.368Z,2.25
2022-09-02T10:01:35.091Z,2.15
2022-09-02T10:04:39.398Z,2.55
2022-09-02T10:07:01.143Z,2.60
2022-09-02T10:09:36.521Z,2.60
2022-09-02T10:12:08.693Z,2.35
2022-09-02T10:14:38.157Z,2.40
2022-09-02T10:17:08.132Z,2.42
2022-09-02T10:19:47.756Z,2.50
2022-09-02T10:22:58.467Z,2.45
2022-09-02T10:25:32.159Z,2.13
2022-09-02T10:28:01.012Z,2.20
2022-09-02T10:30:32.891Z,2.20
2022-09-02T10:33:36.957Z,2.30
2022-09-02T10:36:20.870Z,2.25
2022-09-02T10:38:50.719Z,2.10
2022-09-02T10:44:25.538Z,2.10
2022-09-02T10:47:25.014Z,2.30
2022-09-02T10:50:23.130Z,2.90
2022-09-02T10:53:19.229Z,2.45
2022-09-02T10:56:08.384Z,2.40
2022-09-02T10:58:42.984Z,2.20
2022-09-02T11:01:20.235Z,2.55
2022-09-02T11:04:03.936Z,3.03
2022-09-02T11:06:58.619Z,13.25
2022-09-02T11:09:33.987Z,18.20
2022-09-02T11:12:17.351Z,22.20
2022-09-02T11:14:50.487Z,22.48
2022-09-02T11:17:26.183Z,22.55
2022-09-02T11:20:12.674Z,21.77
2022-09-02T11:23:18.801Z,19.77
2022-09-02T11:26:02.339Z,20.35
2022-09-02T11:28:47.323Z,17.58
2022-09-02T11:31:30.230Z,15.85
2022-09-02T11:34:35.923Z,15.63
2022-09-02T11:37:10.753Z,13.95
2022-09-02T11:39:54.386Z,14.88
2022-09-02T11:42:47.766Z,13.82
2022-09-02T11:45:44.462Z,12.40
2022-09-02T11:48:31.294Z,13.30
2022-09-02T11:51:25.013Z,12.30
2022-09-02T11:53:55.942Z,9.85
2022-09-02T11:56:31.467Z,9.95
2022-09-02T11:58:58.856Z,8.95
2022-09-02T12:01:31.620Z,7.88
2022-09-02T12:07:12.824Z,6.95
2022-09-02T12:09:46.949Z,5.50
2022-09-02T12:12:36.514Z,6.22
2022-09-02T12:15:16.894Z,6.00
2022-09-02T12:17:51.263Z,5.57
2022-09-02T12:20:37.411Z,6.03
2022-09-02T12:23:05.529Z,4.90
2022-09-02T12:25:38.295Z,4.85
2022-09-02T12:28:24.224Z,4.47
2022-09-02T12:31:24.689Z,4.13
2022-09-02T12:33:52.035Z,4.68
2022-09-02T12:36:38.237Z,4.20
2022-09-02T12:39:27.303Z,4.20
2022-09-02T12:42:11.847Z,4.05
2022-09-02T12:45:02.985Z,3.65
2022-09-02T12:48:06.615Z,4.18
2022-09-02T12:50:52.161Z,3.55
2022-09-02T12:53:37.638Z,3.50
2022-09-02T12:56:13.358Z,3.05
2022-09-02T12:58:49.286Z,3.67
2022-09-02T13:02:01.694Z,2.97
2022-09-02T13:04:51.607Z,2.80
2022-09-02T13:07:33.877Z,3.00
2022-09-02T13:10:16.395Z,2.70
2022-09-02T13:13:14.302Z,2.78
2022-09-02T13:15:47.514Z,2.63
2022-09-02T13:18:41.160Z,2.92
2022-09-02T13:21:42.452Z,2.67
2022-09-02T13:24:29.795Z,2.35
2022-09-02T13:27:42.568Z,2.60
2022-09-02T13:31:06.031Z,2.42
2022-09-02T13:33:33.638Z,2.35
2022-09-02T13:36:00.966Z,2.53
2022-09-02T13:38:30.878Z,2.45
2022-09-02T13:40:58.212Z,2.30
2022-09-02T13:43:27.117Z,2.55
2022-09-02T13:45:59.796Z,2.72
2022-09-02T13:48:30.896Z,2.35
2022-09-02T13:51:13.235Z,2.10
2022-09-02T13:54:05.135Z,2.10
2022-09-02T13:56:31.353Z,2.15
2022-09-02T13:58:58.789Z,2.00
2022-09-02T14:01:37.391Z,2.40
2022-09-02T14:04:11.283Z,2.58
2022-09-02T14:06:44.578Z,3.15
2022-09-02T14:09:21.252Z,3.58
2022-09-02T14:11:49.506Z,4.13
2022-09-02T14:14:22.112Z,3.97
2022-09-02T14:16:49.529Z,3.90
2022-09-02T14:19:24.239Z,3.60
2022-09-02T14:21:53.878Z,4.35
2022-09-02T14:24:27.555Z,4.30
2022-09-02T14:27:04.033Z,4.45
2022-09-02T14:29:32.115Z,3.70
2022-09-02T14:32:28.165Z,3.50
2022-09-02T14:35:17.254Z,4.20
2022-09-02T14:37:59.437Z,2.90
2022-09-02T14:40:35.722Z,2.95
2022-09-02T14:43:03.841Z,3.40
2022-09-02T14:45:34.187Z,3.03
2022-09-02T14:48:19.938Z,3.83
2022-09-02T14:50:47.336Z,3.28
2022-09-02T14:53:22.442Z,2.75
2022-09-02T14:55:54.175Z,3.45
2022-09-02T14:58:27.156Z,3.53
2022-09-02T15:01:00.767Z,3.53
2022-09-02T15:03:30.255Z,3.20
2022-09-02T15:05:58.248Z,2.97
2022-09-02T15:08:25.946Z,2.40
2022-09-02T15:10:54.781Z,2.45
2022-09-02T15:13:34.142Z,2.38
2022-09-02T15:16:02.927Z,2.97
2022-09-02T15:18:30.847Z,2.80
2022-09-02T15:20:58.327Z,3.05
2022-09-02T15:23:27.271Z,2.40
2022-09-02T15:25:55.974Z,2.95
2022-09-02T15:28:23.339Z,2.72
2022-09-02T15:31:01.732Z,2.53
2022-09-02T15:33:30.016Z,2.20
2022-09-02T15:36:06.968Z,2.60
2022-09-02T15:38:34.692Z,3.10
2022-09-02T15:41:12.752Z,2.80
2022-09-02T15:43:40.395Z,2.88
2022-09-02T15:46:18.510Z,2.83
2022-09-02T15:48:47.467Z,2.47
2022-09-02T15:51:16.896Z,2.70
2022-09-02T15:53:44.305Z,2.17
2022-09-02T15:56:24.235Z,2.35
2022-09-02T15:59:03.293Z,2.20
2022-09-02T16:01:33.010Z,2.28
2022-09-02T16:04:04.466Z,2.25
2022-09-02T16:06:33.487Z,1.92
2022-09-02T16:09:01.361Z,2.20
2022-09-02T16:11:29.039Z,1.90
2022-09-02T16:13:56.494Z,1.67
2022-09-02T16:16:23.873Z,1.55
2022-09-02T16:18:53.266Z,2.00
2022-09-02T16:21:21.814Z,1.85
2022-09-02T16:23:51.128Z,1.90
2022-09-02T16:26:32.243Z,1.48
2022-09-02T16:29:02.428Z,1.90
2022-09-02T16:31:31.776Z,1.58
2022-09-02T16:34:10.678Z,1.55
2022-09-02T16:36:41.028Z,1.70
2022-09-02T16:39:10.760Z,1.50
2022-09-02T16:41:42.187Z,1.60
2022-09-02T16:44:28.949Z,1.58
2022-09-02T16:46:56.253Z,1.50
2022-09-02T16:49:24.824Z,1.55
2022-09-02T16:51:58.208Z,1.60
2022-09-02T16:54:30.721Z,1.60
2022-09-02T16:56:59.859Z,1.47
2022-09-02T16:59:27.635Z,1.33
2022-09-02T17:01:54.945Z,1.20
2022-09-02T17:04:22.237Z,1.35
2022-09-02T17:06:49.644Z,1.38
2022-09-02T17:09:16.980Z,1.60
2022-09-02T17:11:45.487Z,1.38
2022-09-02T17:14:16.450Z,1.30
2022-09-02T17:16:46.759Z,1.38
2022-09-02T17:19:20.756Z,1.30
2022-09-02T17:21:53.192Z,1.52
2022-09-02T17:24:23.305Z,1.20
2022-09-02T17:26:52.455Z,1.35
2022-09-02T17:32:09.654Z,1.30
2022-09-02T17:34:37.512Z,1.20
2022-09-02T17:37:05.380Z,1.10
2022-09-02T17:39:34.346Z,1.15
2022-09-02T17:42:03.184Z,1.25
2022-09-02T17:44:36.245Z,1.00
2022-09-02T17:47:06.294Z,1.05
2022-09-02T17:49:38.708Z,1.27
2022-09-02T17:52:07.946Z,1.10
2022-09-02T17:54:36.892Z,1.40
2022-09-02T17:57:28.978Z,1.23
2022-09-02T18:00:13.415Z,0.90
2022-09-02T18:03:09.521Z,1.20
2022-09-02T18:05:45.645Z,1.20
2022-09-02T18:08:48.620Z,1.05
2022-09-02T18:11:16.990Z,1.08
2022-09-02T18:13:59.702Z,1.33
2022-09-02T18:16:51.558Z,1.20
2022-09-02T18:19:29.073Z,1.00
2022-09-02T18:22:14.555Z,1.10
2022-09-02T18:25:03.151Z,1.15
2022-09-02T18:27:52.625Z,0.98
2022-09-02T18:30:38.468Z,0.90
2022-09-02T18:33:34.371Z,1.00
2022-09-02T18:36:31.412Z,0.90
2022-09-02T18:39:27.821Z,1.20
2022-09-02T18:41:58.622Z,0.90
2022-09-02T18:44:40.750Z,0.82
2022-09-02T18:47:17.583Z,0.95
2022-09-02T18:49:46.718Z,1.05
2022-09-02T18:52:14.390Z,0.98
2022-09-02T18:54:48.660Z,1.20
2022-09-02T18:57:16.632Z,1.00
2022-09-02T18:59:48.196Z,1.10
2022-09-02T19:02:55.268Z,0.90
2022-09-02T19:05:26.615Z,0.80
2022-09-02T19:08:21.465Z,0.95
2022-09-02T19:10:48.979Z,0.90
2022-09-02T19:13:16.885Z,1.00
2022-09-02T19:15:44.183Z,0.93
2022-09-02T19:18:11.427Z,0.85
2022-09-02T19:20:39.614Z,1.05
2022-09-02T19:23:08.209Z,0.90
2022-09-02T19:25:39.132Z,0.80
2022-09-02T19:28:06.701Z,0.80
2022-09-02T19:30:37.414Z,0.80
2022-09-02T19:33:09.377Z,0.90
2022-09-02T19:35:38.170Z,0.82
2022-09-02T19:38:05.662Z,0.85
2022-09-02T19:40:33.893Z,1.10
2022-09-02T19:43:03.354Z,1.10
2022-09-02T19:45:36.071Z,1.02
2022-09-02T19:48:07.548Z,1.00
2022-09-02T19:50:42.357Z,1.08
2022-09-02T19:53:22.329Z,1.10
2022-09-02T19:55:51.081Z,1.10
2022-09-02T19:58:18.558Z,1.15
2022-09-02T20:00:47.146Z,1.08
2022-09-02T20:03:15.224Z,1.05
2022-09-02T20:05:42.586Z,1.13
2022-09-02T20:08:09.896Z,1.38
2022-09-02T20:10:40.345Z,1.20
2022-09-02T20:13:09.342Z,1.20
2022-09-02T20:15:40.151Z,1.20
2022-09-02T20:18:13.078Z,1.45
2022-09-02T20:20:57.178Z,1.58
2022-09-02T20:23:27.643Z,2.40
2022-09-02T20:26:26.172Z,2.10
2022-09-02T20:28:59.514Z,2.35
2022-09-02T20:31:44.767Z,2.03
2022-09-02T20:34:42.828Z,2.40
2022-09-02T20:37:19.355Z,2.30
2022-09-02T20:40:01.358Z,2.03
2022-09-02T20:43:04.603Z,2.25
2022-09-02T20:45:50.289Z,2.55
2022-09-02T20:48:50.333Z,2.05
2022-09-02T20:51:49.081Z,2.28
2022-09-02T20:54:35.522Z,2.88
2022-09-02T20:57:07.620Z,2.60
2022-09-02T20:59:57.433Z,2.58
2022-09-02T21:02:33.385Z,2.25
2022-09-02T21:05:11.979Z,2.42
2022-09-02T21:07:45.737Z,2.58
2022-09-02T21:10:29.411Z,2.47
2022-09-02T21:13:23.149Z,2.30
2022-09-02T21:15:59.220Z,2.60
2022-09-02T21:18:42.511Z,2.33
2022-09-02T21:21:31.830Z,2.50
2022-09-02T21:24:13.800Z,2.85
2022-09-02T21:27:02.298Z,2.50
2022-09-02T21:30:02.910Z,2.35
2022-09-02T21:33:02.527Z,2.60
2022-09-02T21:35:38.755Z,2.72
2022-09-02T21:38:16.862Z,2.40
2022-09-02T21:40:50.884Z,2.30
2022-09-02T21:43:30.118Z,2.58
2022-09-02T21:46:17.135Z,2.45
2022-09-02T21:49:10.465Z,2.40
2022-09-02T21:52:09.193Z,2.50
2022-09-02T21:54:42.053Z,2.42
2022-09-02T21:57:12.160Z,2.60
2022-09-02T21:59:52.098Z,2.47
2022-09-02T22:02:27.868Z,2.50
2022-09-02T22:05:00.687Z,2.85
2022-09-02T22:07:47.924Z,2.70
2022-09-02T22:10:30.750Z,2.05
2022-09-02T22:13:01.183Z,2.30
2022-09-02T22:15:44.690Z,2.40
2022-09-02T22:18:24.729Z,2.72
2022-09-02T22:21:01.265Z,2.60
2022-09-02T22:23:30.925Z,2.60
2022-09-02T22:26:28.869Z,2.22
2022-09-02T22:29:06.300Z,2.10
2022-09-02T22:31:37.788Z,2.60
2022-09-02T22:34:08.603Z,2.47
2022-09-02T22:36:56.350Z,2.40
2022-09-02T22:39:47.380Z,2.17
2022-09-02T22:42:23.317Z,2.30
2022-09-02T22:45:24.244Z,2.20
2022-09-02T22:48:17.637Z,2.40
2022-09-02T22:51:09.539Z,2.53
2022-09-02T22:53:36.906Z,2.30
2022-09-02T22:56:11.417Z,2.10
2022-09-02T22:59:00.211Z,2.40
2022-09-02T23:01:45.377Z,2.20
2022-09-02T23:04:30.719Z,2.30
2022-09-02T23:07:01.805Z,2.13
2022-09-02T23:09:29.109Z,2.50
2022-09-02T23:11:56.880Z,2.10
2022-09-02T23:15:04.151Z,2.20
2022-09-02T23:18:08.658Z,2.30
2022-09-02T23:20:56.773Z,2.00
2022-09-02T23:23:57.691Z,2.28
2022-09-02T23:26:43.032Z,2.03
2022-09-02T23:29:34.081Z,2.20
2022-09-02T23:32:22.580Z,2.47
2022-09-02T23:35:24.183Z,2.25
2022-09-02T23:38:13.011Z,1.95
2022-09-02T23:40:47.313Z,2.28
2022-09-02T23:45:47.042Z,2.10
2022-09-02T23:48:32.606Z,1.98
2022-09-02T23:51:27.714Z,2.17
2022-09-02T23:56:51.725Z,2.08
2022-09-02T23:59:34.293Z,2.20
